createdAt,value
2018-08-17T00:00:03.664Z,17.40
2018-08-17T00:02:31.814Z,18.55
2018-08-17T00:04:59.943Z,18.10
2018-08-17T00:07:28.612Z,19.02
2018-08-17T00:09:56.756Z,16.70
2018-08-17T00:12:24.887Z,17.45
2018-08-17T00:14:53.039Z,16.57
2018-08-17T00:17:21.171Z,17.60
2018-08-17T00:19:49.330Z,16.70
2018-08-17T00:22:17.469Z,17.75
2018-08-17T00:24:45.682Z,16.50
2018-08-17T00:27:13.785Z,17.13
2018-08-17T00:29:41.940Z,16.63
2018-08-17T00:32:10.123Z,16.87
2018-08-17T00:34:38.303Z,17.50
2018-08-17T00:37:06.464Z,16.83
2018-08-17T00:39:34.619Z,17.50
2018-08-17T00:42:02.811Z,18.90
2018-08-17T00:44:30.959Z,19.60
2018-08-17T00:46:59.076Z,17.90
2018-08-17T00:49:27.216Z,16.57
2018-08-17T00:52:02.457Z,15.80
2018-08-17T00:54:30.656Z,15.60
2018-08-17T00:56:58.826Z,16.50
2018-08-17T00:59:27.425Z,16.20
2018-08-17T01:01:55.600Z,14.83
2018-08-17T01:04:23.761Z,15.40
2018-08-17T01:06:51.927Z,14.33
2018-08-17T01:09:20.105Z,16.37
2018-08-17T01:11:48.281Z,17.50
2018-08-17T01:14:16.511Z,19.83
2018-08-17T01:16:44.680Z,18.90
2018-08-17T01:19:12.866Z,19.37
2018-08-17T01:21:41.043Z,17.12
2018-08-17T01:24:09.214Z,19.00
2018-08-17T01:26:37.406Z,19.80
2018-08-17T01:29:05.578Z,20.30
2018-08-17T01:31:33.764Z,24.13
2018-08-17T01:34:01.971Z,22.67
2018-08-17T01:36:30.177Z,23.60
2018-08-17T01:38:58.343Z,22.13
2018-08-17T01:41:26.510Z,22.80
2018-08-17T01:43:54.676Z,22.30
2018-08-17T01:46:22.856Z,21.70
2018-08-17T01:48:51.031Z,22.10
2018-08-17T01:51:19.224Z,23.03
2018-08-17T01:53:47.381Z,20.10
2018-08-17T01:56:15.548Z,23.87
2018-08-17T01:58:44.520Z,20.90
2018-08-17T02:01:12.737Z,22.15
2018-08-17T02:03:40.921Z,20.20
2018-08-17T02:06:09.105Z,19.80
2018-08-17T02:08:37.273Z,20.35
2018-08-17T02:11:05.447Z,19.23
2018-08-17T02:13:33.636Z,20.10
2018-08-17T02:16:01.800Z,21.73
2018-08-17T02:18:29.938Z,19.47
2018-08-17T02:20:58.126Z,20.17
2018-08-17T02:23:26.292Z,21.40
2018-08-17T02:25:55.148Z,20.87
2018-08-17T02:28:23.436Z,22.85
2018-08-17T02:30:51.634Z,21.90
2018-08-17T02:33:19.802Z,23.54
2018-08-17T02:35:48.032Z,17.90
2018-08-17T02:38:16.265Z,18.40
2018-08-17T02:40:44.442Z,18.70
2018-08-17T02:43:12.732Z,16.90
2018-08-17T02:45:40.910Z,17.27
2018-08-17T02:48:09.070Z,18.70
2018-08-17T02:50:37.264Z,17.00
2018-08-17T02:53:06.313Z,15.70
2018-08-17T02:55:34.483Z,17.43
2018-08-17T02:58:02.618Z,17.20
2018-08-17T03:00:30.770Z,17.07
2018-08-17T03:02:58.942Z,20.53
2018-08-17T03:05:27.069Z,17.70
2018-08-17T03:07:55.226Z,19.50
2018-08-17T03:10:23.385Z,20.80
2018-08-17T03:12:52.110Z,20.50
2018-08-17T03:15:20.254Z,17.67
2018-08-17T03:17:48.412Z,17.27
2018-08-17T03:20:16.603Z,17.47
2018-08-17T03:22:44.747Z,19.27
2018-08-17T03:25:12.915Z,21.55
2018-08-17T03:27:41.083Z,20.20
2018-08-17T03:30:09.225Z,20.92
2018-08-17T03:32:37.386Z,22.40
2018-08-17T03:35:05.897Z,20.80
2018-08-17T03:37:34.018Z,22.03
2018-08-17T03:40:02.213Z,18.27
2018-08-17T03:42:30.442Z,16.77
2018-08-17T03:44:58.581Z,16.55
2018-08-17T03:47:26.776Z,16.90
2018-08-17T03:49:54.941Z,15.40
2018-08-17T03:52:23.083Z,15.13
2018-08-17T03:54:51.205Z,16.33
2018-08-17T03:57:19.354Z,16.80
2018-08-17T03:59:47.535Z,16.25
2018-08-17T04:02:15.692Z,15.98
2018-08-17T04:04:43.840Z,16.12
2018-08-17T04:07:11.995Z,17.55
2018-08-17T04:09:40.125Z,17.75
2018-08-17T04:12:08.297Z,16.80
2018-08-17T04:14:36.434Z,15.53
2018-08-17T04:17:04.583Z,15.27
2018-08-17T04:19:32.720Z,15.10
2018-08-17T04:22:00.862Z,13.90
2018-08-17T04:24:29.015Z,16.53
2018-08-17T04:26:57.202Z,17.73
2018-08-17T04:29:25.352Z,17.00
2018-08-17T04:31:53.518Z,14.27
2018-08-17T04:34:22.224Z,14.60
2018-08-17T04:36:50.342Z,14.47
2018-08-17T04:39:18.503Z,16.30
2018-08-17T04:41:46.646Z,15.77
2018-08-17T04:44:14.820Z,16.97
2018-08-17T04:46:42.988Z,18.23
2018-08-17T04:49:11.119Z,17.97
2018-08-17T04:51:39.288Z,17.30
2018-08-17T04:54:07.452Z,16.67
2018-08-17T04:56:35.605Z,18.20
2018-08-17T04:59:03.764Z,15.83
2018-08-17T05:01:31.930Z,17.50
2018-08-17T05:04:00.098Z,18.30
2018-08-17T05:06:28.264Z,16.90
2018-08-17T05:08:56.463Z,18.20
2018-08-17T05:11:24.596Z,18.67
2018-08-17T05:13:52.801Z,14.93
2018-08-17T05:16:20.965Z,14.93
2018-08-17T05:18:49.128Z,16.25
2018-08-17T05:21:17.329Z,17.17
2018-08-17T05:23:45.506Z,23.03
2018-08-17T05:26:13.625Z,21.75
2018-08-17T05:28:41.806Z,24.27
2018-08-17T05:31:09.942Z,24.12
2018-08-17T05:33:38.087Z,22.00
2018-08-17T05:36:06.328Z,16.97
2018-08-17T05:38:34.983Z,16.67
2018-08-17T05:41:03.150Z,23.60
2018-08-17T05:43:31.314Z,22.00
2018-08-17T05:45:59.487Z,21.30
2018-08-17T05:48:28.484Z,21.73
2018-08-17T05:50:56.638Z,21.03
2018-08-17T05:53:24.805Z,21.50
2018-08-17T05:55:52.998Z,20.60
2018-08-17T05:58:21.173Z,21.95
2018-08-17T06:00:49.417Z,20.95
2018-08-17T06:03:17.575Z,20.37
2018-08-17T06:05:45.727Z,21.77
2018-08-17T06:08:13.921Z,21.27
2018-08-17T06:10:42.122Z,19.60
2018-08-17T06:13:10.287Z,22.80
2018-08-17T06:15:38.431Z,20.90
2018-08-17T06:18:06.661Z,18.85
2018-08-17T06:20:34.830Z,21.17
2018-08-17T06:23:03.136Z,19.27
2018-08-17T06:25:31.342Z,17.27
2018-08-17T06:27:59.499Z,19.67
2018-08-17T06:30:27.709Z,18.70
2018-08-17T06:32:55.881Z,20.90
2018-08-17T06:35:24.057Z,20.43
2018-08-17T06:37:52.209Z,20.23
2018-08-17T06:40:20.400Z,21.40
2018-08-17T06:42:48.581Z,18.87
2018-08-17T06:45:16.757Z,19.67
2018-08-17T06:47:44.951Z,21.33
2018-08-17T06:50:13.214Z,23.30
2018-08-17T06:52:42.348Z,20.60
2018-08-17T06:55:11.562Z,20.60
2018-08-17T06:57:40.137Z,20.33
2018-08-17T07:00:10.780Z,21.33
2018-08-17T07:02:39.158Z,19.70
2018-08-17T07:05:07.557Z,19.73
2018-08-17T07:07:35.751Z,17.87
2018-08-17T07:10:04.423Z,18.40
2018-08-17T07:12:32.587Z,18.37
2018-08-17T07:15:00.766Z,17.93
2018-08-17T07:17:29.043Z,16.07
2018-08-17T07:19:57.219Z,15.13
2018-08-17T07:22:25.390Z,14.10
2018-08-17T07:24:53.636Z,13.73
2018-08-17T07:27:22.201Z,12.70
2018-08-17T07:29:50.541Z,13.48
2018-08-17T07:32:18.796Z,11.17
2018-08-17T07:34:46.994Z,10.60
2018-08-17T07:37:15.145Z,10.50
2018-08-17T07:39:43.343Z,10.33
2018-08-17T07:42:22.993Z,12.03
2018-08-17T07:44:51.212Z,11.00
2018-08-17T07:47:19.384Z,11.70
2018-08-17T07:49:47.566Z,8.70
2018-08-17T07:52:15.741Z,8.03
2018-08-17T07:54:43.920Z,6.75
2018-08-17T07:57:12.140Z,4.83
2018-08-17T07:59:40.351Z,5.20
2018-08-17T08:02:08.505Z,5.60
2018-08-17T08:04:36.689Z,5.20
2018-08-17T08:07:04.897Z,4.47
2018-08-17T08:09:33.144Z,4.90
2018-08-17T08:12:01.304Z,5.40
2018-08-17T08:14:29.500Z,4.80
2018-08-17T08:16:58.106Z,6.23
2018-08-17T08:19:26.263Z,5.70
2018-08-17T08:21:54.446Z,6.80
2018-08-17T08:24:22.593Z,8.10
2018-08-17T08:26:51.007Z,8.87
2018-08-17T08:29:19.239Z,9.00
2018-08-17T08:31:47.672Z,9.80
2018-08-17T08:34:15.872Z,9.33
2018-08-17T08:36:44.103Z,8.20
2018-08-17T08:39:13.525Z,8.50
2018-08-17T08:41:41.670Z,9.63
2018-08-17T08:44:09.838Z,7.67
2018-08-17T08:46:38.462Z,7.90
2018-08-17T08:49:06.772Z,6.62
2018-08-17T08:51:35.074Z,4.97
2018-08-17T08:54:03.848Z,3.97
2018-08-17T08:56:32.295Z,3.67
2018-08-17T08:59:00.441Z,3.17
2018-08-17T09:01:28.867Z,3.70
2018-08-17T09:03:57.199Z,3.07
2018-08-17T09:06:25.372Z,2.90
2018-08-17T09:08:53.523Z,3.10
2018-08-17T09:11:21.687Z,3.20
2018-08-17T09:13:49.843Z,2.90
2018-08-17T09:16:17.928Z,3.33
2018-08-17T09:18:46.181Z,3.13
2018-08-17T09:21:14.337Z,3.00
2018-08-17T09:23:42.488Z,3.52
2018-08-17T09:26:10.619Z,3.00
2018-08-17T09:28:38.855Z,3.30
2018-08-17T09:31:07.358Z,4.27
2018-08-17T09:33:35.690Z,3.27
2018-08-17T09:36:03.880Z,3.30
2018-08-17T09:38:32.022Z,3.30
2018-08-17T09:41:01.156Z,3.13
2018-08-17T09:43:29.276Z,3.13
2018-08-17T09:45:57.422Z,3.33
2018-08-17T09:48:25.577Z,2.50
2018-08-17T09:50:53.711Z,3.55
2018-08-17T09:53:21.868Z,3.30
2018-08-17T09:55:50.011Z,3.77
2018-08-17T09:58:18.136Z,3.70
2018-08-17T10:00:51.675Z,4.30
2018-08-17T10:03:25.171Z,3.92
2018-08-17T10:05:58.599Z,4.40
2018-08-17T10:08:32.725Z,4.00
2018-08-17T10:11:00.997Z,4.05
2018-08-17T10:13:29.748Z,4.87
2018-08-17T10:15:57.874Z,4.10
2018-08-17T10:18:30.826Z,3.37
2018-08-17T10:20:58.982Z,2.80
2018-08-17T10:23:27.068Z,3.23
2018-08-17T10:25:55.223Z,3.10
2018-08-17T10:28:23.366Z,3.43
2018-08-17T10:30:51.540Z,3.17
2018-08-17T10:33:19.741Z,3.53
2018-08-17T10:35:47.865Z,2.90
2018-08-17T10:38:16.005Z,3.43
2018-08-17T10:40:44.208Z,2.90
2018-08-17T10:43:12.858Z,3.33
2018-08-17T10:45:41.053Z,3.30
2018-08-17T10:48:09.281Z,3.70
2018-08-17T10:50:37.394Z,3.60
2018-08-17T10:53:05.754Z,4.07
2018-08-17T10:55:40.959Z,3.23
2018-08-17T10:58:10.608Z,2.97
2018-08-17T11:00:38.759Z,2.83
2018-08-17T11:03:07.957Z,2.80
2018-08-17T11:05:36.116Z,3.30
2018-08-17T11:08:05.309Z,2.60
2018-08-17T11:10:33.422Z,2.80
2018-08-17T11:13:01.573Z,2.77
2018-08-17T11:15:29.767Z,2.87
2018-08-17T11:17:58.734Z,2.93
2018-08-17T11:20:26.881Z,2.50
2018-08-17T11:22:55.039Z,2.67
2018-08-17T11:25:23.137Z,2.70
2018-08-17T11:27:51.994Z,2.60
2018-08-17T11:30:20.166Z,2.80
2018-08-17T11:32:48.310Z,3.10
2018-08-17T11:35:16.468Z,2.97
2018-08-17T11:37:44.620Z,3.40
2018-08-17T11:40:13.449Z,3.40
2018-08-17T11:42:43.164Z,3.42
2018-08-17T11:45:14.557Z,3.40
2018-08-17T11:47:43.522Z,3.30
2018-08-17T11:50:13.684Z,3.53
2018-08-17T11:52:49.085Z,3.45
2018-08-17T11:55:17.783Z,4.17
2018-08-17T11:57:45.990Z,3.40
2018-08-17T12:00:14.120Z,3.93
2018-08-17T12:02:42.337Z,3.97
2018-08-17T12:05:10.977Z,4.00
2018-08-17T12:07:39.911Z,3.70
2018-08-17T12:10:08.088Z,4.03
2018-08-17T12:12:37.502Z,4.57
2018-08-17T12:15:06.580Z,4.70
2018-08-17T12:17:34.891Z,3.57
2018-08-17T12:20:03.395Z,4.10
2018-08-17T12:22:31.889Z,3.73
2018-08-17T12:25:00.512Z,4.13
2018-08-17T12:27:28.597Z,3.12
2018-08-17T12:29:56.796Z,3.33
2018-08-17T12:32:25.328Z,2.87
2018-08-17T12:34:53.651Z,3.87
2018-08-17T12:37:21.867Z,4.08
2018-08-17T12:39:50.109Z,3.67
2018-08-17T12:42:18.310Z,3.87
2018-08-17T12:44:46.535Z,3.50
2018-08-17T12:47:14.739Z,3.02
2018-08-17T12:49:42.951Z,2.90
2018-08-17T12:52:11.192Z,3.73
2018-08-17T12:54:39.928Z,3.10
2018-08-17T12:57:09.100Z,3.10
2018-08-17T12:59:37.386Z,2.73
2018-08-17T13:02:05.540Z,2.90
2018-08-17T13:04:33.649Z,2.57
2018-08-17T13:07:01.800Z,2.70
2018-08-17T13:09:29.916Z,2.70
2018-08-17T13:12:00.273Z,2.40
2018-08-17T13:14:28.881Z,2.83
2018-08-17T13:16:59.055Z,2.98
2018-08-17T13:19:27.360Z,2.77
2018-08-17T13:21:55.552Z,2.63
2018-08-17T13:24:23.785Z,2.80
2018-08-17T13:26:51.982Z,2.93
2018-08-17T13:29:20.268Z,3.50
2018-08-17T13:31:48.467Z,3.10
2018-08-17T13:34:16.619Z,2.77
2018-08-17T13:36:44.732Z,3.07
2018-08-17T13:39:12.848Z,2.80
2018-08-17T13:41:40.971Z,3.83
2018-08-17T13:44:11.586Z,3.77
2018-08-17T13:46:39.677Z,3.30
2018-08-17T13:49:07.806Z,4.20
2018-08-17T13:51:35.900Z,3.80
2018-08-17T13:54:04.314Z,3.33
2018-08-17T13:56:32.430Z,3.70
2018-08-17T13:59:00.525Z,3.80
2018-08-17T14:01:28.671Z,4.57
2018-08-17T14:03:56.831Z,4.53
2018-08-17T14:06:25.015Z,5.03
2018-08-17T14:08:53.168Z,4.23
2018-08-17T14:11:21.589Z,4.87
2018-08-17T14:13:49.744Z,5.67
2018-08-17T14:16:18.020Z,4.83
2018-08-17T14:18:46.209Z,5.70
2018-08-17T14:21:14.339Z,5.17
2018-08-17T14:23:42.593Z,6.63
2018-08-17T14:26:10.690Z,7.20
2018-08-17T14:28:38.884Z,8.13
2018-08-17T14:31:07.026Z,6.90
2018-08-17T14:33:35.153Z,7.45
2018-08-17T14:36:03.377Z,7.60
2018-08-17T14:38:33.680Z,7.27
2018-08-17T14:41:02.493Z,7.73
2018-08-17T14:43:30.645Z,7.53
2018-08-17T14:45:58.805Z,7.20
2018-08-17T14:48:26.922Z,8.00
2018-08-17T14:50:55.262Z,7.73
2018-08-17T14:53:23.472Z,7.37
2018-08-17T14:55:51.613Z,6.80
2018-08-17T14:58:19.753Z,8.10
2018-08-17T15:00:47.957Z,8.23
2018-08-17T15:03:16.911Z,7.20
2018-08-17T15:05:45.923Z,6.65
2018-08-17T15:08:14.163Z,7.60
2018-08-17T15:10:42.230Z,7.75
2018-08-17T15:13:14.476Z,7.83
2018-08-17T15:15:43.490Z,6.87
2018-08-17T15:18:11.715Z,6.63
2018-08-17T15:20:39.835Z,7.27
2018-08-17T15:23:09.185Z,7.84
2018-08-17T15:25:38.394Z,8.33
2018-08-17T15:28:06.556Z,6.77
2018-08-17T15:30:34.687Z,7.10
2018-08-17T15:33:02.864Z,6.40
2018-08-17T15:35:30.984Z,6.63
2018-08-17T15:37:59.094Z,7.43
2018-08-17T15:40:27.190Z,8.07
2018-08-17T15:42:58.660Z,5.37
2018-08-17T15:45:26.784Z,5.23
2018-08-17T15:47:54.921Z,4.97
2018-08-17T15:50:23.176Z,4.50
2018-08-17T15:52:51.322Z,4.40
2018-08-17T15:55:19.535Z,5.00
2018-08-17T15:57:47.794Z,6.87
2018-08-17T16:00:18.009Z,5.67
2018-08-17T16:02:46.171Z,5.00
2018-08-17T16:05:14.341Z,4.95
2018-08-17T16:07:42.544Z,5.00
2018-08-17T16:10:12.621Z,4.83
2018-08-17T16:12:40.708Z,4.58
2018-08-17T16:15:09.771Z,3.20
2018-08-17T16:17:38.359Z,4.10
2018-08-17T16:20:07.662Z,3.85
2018-08-17T16:22:35.808Z,4.43
2018-08-17T16:25:03.955Z,3.90
2018-08-17T16:27:32.076Z,3.80
2018-08-17T16:30:00.223Z,3.43
2018-08-17T16:32:28.333Z,4.03
2018-08-17T16:34:56.480Z,3.80
2018-08-17T16:37:24.674Z,3.30
2018-08-17T16:39:54.838Z,3.83
2018-08-17T16:42:27.408Z,3.17
2018-08-17T16:44:55.977Z,3.27
2018-08-17T16:47:24.060Z,3.10
2018-08-17T16:49:52.268Z,3.03
2018-08-17T16:52:20.388Z,2.70
2018-08-17T16:54:48.569Z,3.53
2018-08-17T16:57:16.683Z,3.40
2018-08-17T16:59:44.951Z,2.93
2018-08-17T17:02:13.108Z,3.40
2018-08-17T17:04:42.441Z,3.17
2018-08-17T17:07:10.572Z,2.70
2018-08-17T17:09:40.063Z,3.07
2018-08-17T17:12:21.200Z,3.00
2018-08-17T17:14:49.319Z,2.70
2018-08-17T17:17:17.508Z,3.10
2018-08-17T17:19:45.653Z,4.87
2018-08-17T17:22:13.824Z,3.10
2018-08-17T17:24:41.913Z,3.20
2018-08-17T17:27:10.046Z,2.70
2018-08-17T17:29:38.525Z,3.13
2018-08-17T17:32:07.174Z,2.90
2018-08-17T17:34:35.316Z,2.77
2018-08-17T17:37:03.463Z,3.00
2018-08-17T17:39:32.020Z,3.30
2018-08-17T17:42:00.132Z,2.80
2018-08-17T17:44:28.910Z,2.75
2018-08-17T17:46:57.013Z,3.10
2018-08-17T17:49:25.153Z,3.70
2018-08-17T17:51:53.307Z,4.25
2018-08-17T17:54:24.234Z,2.42
2018-08-17T17:57:24.037Z,3.22
2018-08-17T17:59:56.241Z,2.70
2018-08-17T18:02:24.422Z,2.95
2018-08-17T18:04:52.560Z,2.90
2018-08-17T18:07:20.847Z,2.90
2018-08-17T18:09:49.856Z,2.90
2018-08-17T18:12:17.984Z,3.40
2018-08-17T18:14:46.105Z,2.67
2018-08-17T18:17:14.260Z,3.60
2018-08-17T18:19:42.398Z,2.65
2018-08-17T18:22:18.144Z,2.65
2018-08-17T18:24:46.329Z,3.20
2018-08-17T18:27:14.484Z,3.13
2018-08-17T18:29:42.698Z,2.93
2018-08-17T18:32:10.874Z,4.08
2018-08-17T18:34:39.016Z,3.70
2018-08-17T18:37:07.714Z,3.52
2018-08-17T18:39:35.897Z,3.43
2018-08-17T18:42:04.058Z,2.80
2018-08-17T18:44:32.261Z,3.27
2018-08-17T18:47:00.442Z,3.33
2018-08-17T18:49:28.628Z,4.87
2018-08-17T18:51:56.799Z,4.00
2018-08-17T18:54:24.923Z,3.40
2018-08-17T18:56:53.090Z,3.58
2018-08-17T18:59:21.214Z,2.95
2018-08-17T19:01:49.363Z,3.33
2018-08-17T19:04:17.537Z,3.85
2018-08-17T19:06:45.712Z,2.47
2018-08-17T19:09:13.881Z,3.75
2018-08-17T19:11:42.021Z,3.25
2018-08-17T19:14:10.142Z,2.80
2018-08-17T19:16:38.330Z,2.95
2018-08-17T19:19:06.485Z,2.83
2018-08-17T19:21:34.621Z,3.07
2018-08-17T19:24:08.265Z,2.57
2018-08-17T19:26:36.414Z,3.23
2018-08-17T19:29:04.632Z,2.50
2018-08-17T19:31:32.774Z,2.73
2018-08-17T19:34:00.920Z,2.90
2018-08-17T19:36:29.080Z,2.80
2018-08-17T19:38:57.210Z,2.50
2018-08-17T19:41:25.381Z,3.10
2018-08-17T19:43:53.531Z,2.98
2018-08-17T19:46:21.774Z,2.87
2018-08-17T19:48:49.830Z,3.10
2018-08-17T19:51:19.016Z,3.00
2018-08-17T19:53:47.525Z,2.60
2018-08-17T19:56:16.316Z,3.10
2018-08-17T19:58:44.484Z,2.93
2018-08-17T20:01:13.416Z,2.90
2018-08-17T20:03:41.574Z,2.97
2018-08-17T20:06:09.748Z,2.87
2018-08-17T20:08:37.860Z,2.80
2018-08-17T20:11:05.995Z,3.00
2018-08-17T20:13:34.141Z,3.50
2018-08-17T20:16:02.664Z,2.87
2018-08-17T20:18:31.009Z,3.10
2018-08-17T20:20:59.188Z,3.10
2018-08-17T20:23:27.314Z,3.22
2018-08-17T20:25:55.585Z,3.87
2018-08-17T20:28:23.588Z,3.90
2018-08-17T20:30:51.713Z,3.50
2018-08-17T20:33:28.010Z,3.75
2018-08-17T20:35:56.807Z,3.90
2018-08-17T20:38:25.015Z,4.00
2018-08-17T20:40:57.794Z,4.12
2018-08-17T20:43:26.259Z,4.00
2018-08-17T20:45:54.415Z,3.60
2018-08-17T20:48:22.558Z,4.22
2018-08-17T20:50:50.675Z,3.60
2018-08-17T20:53:20.702Z,3.90
2018-08-17T20:55:48.852Z,6.25
2018-08-17T20:58:17.974Z,4.80
2018-08-17T21:00:46.124Z,4.33
2018-08-17T21:03:14.314Z,4.37
2018-08-17T21:05:42.578Z,4.97
2018-08-17T21:08:10.752Z,5.50
2018-08-17T21:10:39.070Z,5.00
2018-08-17T21:13:07.270Z,6.08
2018-08-17T21:15:35.409Z,6.25
2018-08-17T21:18:03.583Z,7.03
2018-08-17T21:20:31.759Z,7.47
2018-08-17T21:22:59.955Z,7.40
2018-08-17T21:25:28.160Z,7.28
2018-08-17T21:27:56.301Z,6.40
2018-08-17T21:30:24.457Z,5.80
2018-08-17T21:32:52.636Z,6.70
2018-08-17T21:35:20.784Z,7.43
2018-08-17T21:37:48.973Z,8.60
2018-08-17T21:40:22.541Z,7.90
2018-08-17T21:42:50.781Z,8.30
2018-08-17T21:45:18.915Z,8.70
2018-08-17T21:47:47.086Z,8.03
2018-08-17T21:50:16.932Z,9.60
2018-08-17T21:52:46.455Z,8.13
2018-08-17T21:55:14.942Z,7.40
2018-08-17T21:57:43.444Z,7.10
2018-08-17T22:00:19.643Z,7.33
2018-08-17T22:02:47.831Z,8.80
2018-08-17T22:05:20.125Z,9.30
2018-08-17T22:07:48.288Z,7.92
2018-08-17T22:10:16.455Z,9.43
2018-08-17T22:12:44.635Z,9.50
2018-08-17T22:15:12.847Z,8.30
2018-08-17T22:17:41.179Z,7.85
2018-08-17T22:20:10.331Z,8.43
2018-08-17T22:22:38.525Z,10.72
2018-08-17T22:25:15.193Z,11.90
2018-08-17T22:27:43.323Z,10.98
2018-08-17T22:30:21.573Z,7.25
2018-08-17T22:32:49.805Z,7.20
2018-08-17T22:35:18.200Z,7.42
2018-08-17T22:37:46.239Z,8.00
2018-08-17T22:40:14.440Z,6.90
2018-08-17T22:42:42.600Z,7.07
2018-08-17T22:45:10.761Z,6.87
2018-08-17T22:47:38.962Z,8.20
2018-08-17T22:50:07.325Z,7.27
2018-08-17T22:52:35.798Z,8.10
2018-08-17T22:55:08.389Z,8.10
2018-08-17T22:57:36.554Z,8.57
2018-08-17T23:00:23.366Z,9.07
2018-08-17T23:02:53.584Z,8.23
2018-08-17T23:05:24.933Z,8.60
2018-08-17T23:07:53.098Z,9.60
2018-08-17T23:10:22.450Z,9.33
2018-08-17T23:12:51.622Z,8.40
2018-08-17T23:15:19.786Z,10.00
2018-08-17T23:17:49.582Z,10.20
2018-08-17T23:20:21.868Z,9.00
2018-08-17T23:22:52.210Z,9.83
2018-08-17T23:25:20.595Z,9.20
2018-08-17T23:27:49.912Z,9.30
2018-08-17T23:30:18.053Z,10.23
2018-08-17T23:32:47.182Z,9.45
2018-08-17T23:35:15.316Z,10.28
2018-08-17T23:37:43.444Z,9.43
2018-08-17T23:40:11.624Z,9.48
2018-08-17T23:42:39.870Z,9.48
2018-08-17T23:45:13.838Z,9.25
2018-08-17T23:47:42.037Z,9.17
2018-08-17T23:50:11.500Z,8.70
2018-08-17T23:52:39.716Z,8.70
2018-08-17T23:55:09.817Z,9.28
2018-08-17T23:57:37.962Z,8.45
